Time;durP1;ratioP1;P1;durP2;ratioP2;P2;SDS_P1;SDS_P2;PMS_P1;PMS_P2;Temp;Humidity;BMP_temperature;BMP_pressure;BME280_temperature;BME280_humidity;BME280_pressure;Samples;Min_cycle;Max_cycle;Signal;HPM_P1;HPM_P2
2022/08/29 00:00:06;;;;;;;5.72;4.40;;;;;;;32.90;34.01;98141.00;5002599;28;20035;-80
2022/08/29 00:02:32;;;;;;;4.88;4.45;;;;;;;33.16;33.84;98141.97;5007008;28;20462;-80
2022/08/29 00:04:58;;;;;;;5.50;4.40;;;;;;;32.60;34.48;98134.53;5007921;28;20061;-80
2022/08/29 00:07:58;;;;;;;6.72;5.25;;;;;;;32.12;35.60;98141.66;5009824;28;20183;-80
2022/08/29 00:10:50;;;;;;;7.07;5.20;;;;;;;32.24;35.71;98131.28;5015560;28;20438;-80
2022/08/29 00:13:16;;;;;;;5.25;4.70;;;;;;;32.53;34.65;98140.66;5006317;28;20324;-80
2022/08/29 00:15:43;;;;;;;3.92;3.55;;;;;;;32.85;34.34;98152.28;5003291;28;20506;-80
2022/08/29 00:18:09;;;;;;;5.40;4.90;;;;;;;32.54;34.11;98133.69;5006569;28;20034;-80
2022/08/29 00:20:35;;;;;;;4.90;4.25;;;;;;;32.51;34.75;98134.66;5001626;28;20169;-80
2022/08/29 00:23:04;;;;;;;4.30;3.88;;;;;;;32.98;33.67;98139.31;5007696;28;20474;-79
2022/08/29 00:25:30;;;;;;;3.88;3.45;;;;;;;33.18;33.35;98136.56;5004964;28;20037;-80
2022/08/29 00:27:56;;;;;;;4.10;3.50;;;;;;;32.85;33.98;98138.84;5019907;28;20464;-80
2022/08/29 00:30:23;;;;;;;4.47;3.78;;;;;;;33.04;34.10;98137.38;5006400;28;20037;-80
2022/08/29 00:32:50;;;;;;;4.03;3.50;;;;;;;33.44;33.37;98133.81;5005978;28;20030;-80
2022/08/29 00:35:20;;;;;;;4.15;3.20;;;;;;;33.62;32.92;98135.59;5003920;28;20038;-79
2022/08/29 00:37:47;;;;;;;3.60;3.13;;;;;;;33.59;32.88;98131.69;5007872;28;20069;-80
2022/08/29 00:40:17;;;;;;;3.83;3.53;;;;;;;33.43;32.95;98129.38;5008116;28;20026;-80
2022/08/29 00:42:43;;;;;;;3.83;3.30;;;;;;;33.51;32.78;98132.59;4997903;28;20038;-80
2022/08/29 00:45:11;;;;;;;3.28;2.97;;;;;;;33.40;33.04;98139.69;5001325;28;20042;-80
2022/08/29 00:47:43;;;;;;;3.63;3.00;;;;;;;33.57;33.03;98131.41;5003752;28;20505;-80
2022/08/29 00:50:16;;;;;;;4.80;4.30;;;;;;;32.71;35.06;98131.91;5010113;28;20401;-80
2022/08/29 00:52:46;;;;;;;7.45;4.75;;;;;;;32.72;34.27;98132.69;5007851;28;20076;-80
2022/08/29 00:55:18;;;;;;;5.93;4.30;;;;;;;32.99;33.93;98135.19;5005649;28;20398;-80
2022/08/29 00:57:48;;;;;;;5.13;3.55;;;;;;;32.97;33.73;98139.81;5002190;28;20109;-80
2022/08/29 01:00:16;;;;;;;3.90;3.50;;;;;;;33.41;33.28;98131.94;5005470;28;20030;-80
2022/08/29 01:02:42;;;;;;;4.20;3.08;;;;;;;33.88;32.25;98133.59;5010217;28;20030;-80
2022/08/29 01:05:11;;;;;;;3.75;3.42;;;;;;;34.11;31.94;98134.66;5013277;28;20065;-79
2022/08/29 01:07:38;;;;;;;4.05;3.20;;;;;;;34.59;30.88;98141.38;5010359;28;20037;-79
2022/08/29 01:10:06;;;;;;;2.92;2.65;;;;;;;34.73;30.87;98137.63;5010477;28;20112;-79
2022/08/29 01:12:34;;;;;;;3.03;2.72;;;;;;;34.15;31.66;98133.16;5009398;28;20386;-80
2022/08/29 01:15:09;;;;;;;5.20;2.90;;;;;;;34.27;31.46;98140.53;5010602;28;20026;-80
2022/08/29 01:17:45;;;;;;;2.58;2.38;;;;;;;34.46;31.53;98140.97;5005951;28;20386;-80
2022/08/29 01:20:19;;;;;;;2.95;2.38;;;;;;;34.56;31.28;98140.34;5008647;28;20038;-80
2022/08/29 01:22:57;;;;;;;2.38;2.13;;;;;;;34.62;31.12;98137.53;5011336;28;20160;-79
2022/08/29 01:25:28;;;;;;;3.00;2.65;;;;;;;33.85;32.56;98137.44;5010958;28;20498;-80
2022/08/29 01:28:28;;;;;;;4.07;2.58;;;;;;;33.86;32.38;98139.03;5007927;28;20060;-79
2022/08/29 01:31:14;;;;;;;2.30;2.10;;;;;;;33.92;32.38;98137.81;5005912;28;20065;-80
2022/08/29 01:33:45;;;;;;;2.17;1.98;;;;;;;33.97;31.78;98127.75;5001496;28;20046;-79
2022/08/29 01:36:19;;;;;;;2.33;2.13;;;;;;;34.02;31.68;98135.59;5008080;28;20038;-79
2022/08/29 01:38:46;;;;;;;3.47;2.60;;;;;;;34.07;31.72;98141.34;5002998;28;20041;-79
2022/08/29 01:41:13;;;;;;;2.90;2.28;;;;;;;33.18;33.15;98138.59;5008055;28;20037;-80
2022/08/29 01:43:49;;;;;;;3.00;2.70;;;;;;;33.03;33.39;98141.47;5002810;28;20493;-79
2022/08/29 01:46:23;;;;;;;2.70;2.50;;;;;;;33.83;32.18;98142.88;5010437;28;20041;-79
2022/08/29 01:48:50;;;;;;;2.60;2.40;;;;;;;33.61;32.50;98146.22;5004962;28;20027;-79
2022/08/29 01:51:17;;;;;;;3.53;3.22;;;;;;;33.65;32.37;98148.84;5006863;28;20030;-79
2022/08/29 01:53:43;;;;;;;4.07;3.17;;;;;;;33.56;32.73;98149.00;5010708;28;20034;-79
2022/08/29 01:56:13;;;;;;;3.30;3.00;;;;;;;33.67;32.71;98147.09;5006500;28;20027;-79
2022/08/29 01:58:41;;;;;;;3.30;3.00;;;;;;;33.97;31.71;98148.47;5008860;28;20105;-80
2022/08/29 02:01:08;;;;;;;3.40;3.13;;;;;;;34.01;31.62;98148.25;5009527;28;20504;-79
2022/08/29 02:03:34;;;;;;;3.45;3.15;;;;;;;33.63;32.36;98149.34;5006681;28;20034;-80
2022/08/29 02:06:01;;;;;;;4.75;4.07;;;;;;;33.76;32.17;98155.47;5006279;28;20087;-80
2022/08/29 02:08:28;;;;;;;6.70;5.18;;;;;;;33.21;32.94;98154.69;4996079;28;20049;-80
2022/08/29 02:10:55;;;;;;;4.95;3.83;;;;;;;33.19;33.23;98162.91;5002345;28;20034;-80
2022/08/29 02:13:23;;;;;;;5.50;4.60;;;;;;;33.06;33.16;98156.78;5011014;28;20030;-80
2022/08/29 02:15:50;;;;;;;4.38;3.97;;;;;;;33.26;33.14;98163.31;5004163;28;20026;-80
2022/08/29 02:18:17;;;;;;;6.30;4.82;;;;;;;33.48;32.85;98153.50;5011273;28;20048;-80
2022/08/29 02:20:43;;;;;;;4.90;4.40;;;;;;;33.50;32.66;98154.59;5003288;28;20543;-80
2022/08/29 02:23:10;;;;;;;4.63;4.18;;;;;;;33.60;32.50;98158.09;5013242;28;20073;-80
2022/08/29 02:25:43;;;;;;;5.72;4.40;;;;;;;33.60;32.37;98152.41;5009005;28;20037;-80
2022/08/29 02:28:10;;;;;;;5.65;5.00;;;;;;;33.51;32.18;98150.47;5008172;28;20084;-80
2022/08/29 02:30:41;;;;;;;4.72;4.32;;;;;;;33.61;32.07;98139.75;5006701;28;20064;-80
2022/08/29 02:33:08;;;;;;;5.82;5.32;;;;;;;33.57;32.29;98147.69;5007108;28;20034;-80
2022/08/29 02:35:35;;;;;;;6.55;5.53;;;;;;;33.73;31.93;98147.91;5007285;28;20064;-79
2022/08/29 02:38:02;;;;;;;5.90;5.00;;;;;;;33.91;31.73;98147.63;5010141;28;20120;-80
2022/08/29 02:40:28;;;;;;;6.60;5.35;;;;;;;33.73;32.99;98138.59;5009392;28;20026;-80
2022/08/29 02:42:55;;;;;;;6.35;5.65;;;;;;;33.83;31.91;98152.19;5021512;28;20505;-80
2022/08/29 02:45:22;;;;;;;6.53;5.82;;;;;;;33.32;32.53;98152.00;5008822;28;20029;-80
2022/08/29 02:47:49;;;;;;;6.93;4.72;;;;;;;33.48;32.43;98153.50;5003269;28;20037;-79
2022/08/29 02:50:15;;;;;;;5.72;5.13;;;;;;;33.49;32.18;98147.34;5006928;28;20046;-80
2022/08/29 02:52:43;;;;;;;5.93;5.30;;;;;;;33.51;32.10;98153.31;5005514;28;20033;-79
2022/08/29 02:55:14;;;;;;;5.35;4.43;;;;;;;33.72;32.01;98151.28;5009193;28;20065;-79
2022/08/29 02:57:40;;;;;;;;;;;;;;;33.58;31.85;98150.06;5008143;28;20146;-79
2022/08/29 03:00:09;;;;;;;5.30;4.65;;;;;;;33.28;32.28;98162.81;5008406;28;19928;-80
2022/08/29 03:02:35;;;;;;;6.47;5.75;;;;;;;33.05;33.11;98158.84;5008134;28;20038;-79
2022/08/29 03:05:01;;;;;;;8.68;6.78;;;;;;;33.32;32.22;98155.66;5008447;28;20030;-79
2022/08/29 03:07:28;;;;;;;6.53;5.60;;;;;;;33.29;32.14;98153.00;5007880;28;20045;-79
2022/08/29 03:09:54;;;;;;;8.98;6.20;;;;;;;32.99;32.78;98148.63;5008019;28;20403;-79
2022/08/29 03:12:20;;;;;;;7.63;6.80;;;;;;;32.69;33.36;98162.13;5008468;28;20417;-80
2022/08/29 03:14:46;;;;;;;7.97;6.93;;;;;;;32.83;33.07;98158.47;5007032;28;20045;-80
2022/08/29 03:17:12;;;;;;;15.68;8.00;;;;;;;32.51;34.52;98156.63;5011908;28;20040;-80
2022/08/29 03:19:38;;;;;;;11.10;8.18;;;;;;;32.45;33.62;98159.34;4999490;28;20032;-81
2022/08/29 03:22:04;;;;;;;8.85;6.65;;;;;;;32.75;33.19;98171.50;5010443;28;20101;-79
2022/08/29 03:24:33;;;;;;;8.40;7.22;;;;;;;32.55;33.78;98171.44;5007913;28;20029;-80
2022/08/29 03:26:59;;;;;;;8.60;6.82;;;;;;;32.56;33.63;98167.28;5006952;28;20048;-80
2022/08/29 03:29:26;;;;;;;8.50;7.55;;;;;;;32.58;33.33;98171.22;5009506;28;20425;-80
2022/08/29 03:31:52;;;;;;;8.38;7.57;;;;;;;32.45;33.87;98178.44;5006951;28;20393;-79
2022/08/29 03:34:18;;;;;;;16.27;9.15;;;;;;;32.27;34.44;98170.91;5009439;28;20105;-80
2022/08/29 03:36:44;;;;;;;13.15;8.73;;;;;;;32.04;34.53;98168.91;5005523;28;21951;-79
2022/08/29 03:39:10;;;;;;;9.82;8.82;;;;;;;31.75;35.56;98168.78;5008922;28;20029;-80
2022/08/29 03:41:37;;;;;;;10.35;8.48;;;;;;;31.44;36.05;98174.81;5006559;28;20458;-79
2022/08/29 03:44:03;;;;;;;12.63;8.20;;;;;;;32.04;34.60;98178.19;5008494;28;20560;-80
2022/08/29 03:46:29;;;;;;;11.93;8.93;;;;;;;32.62;33.62;98179.56;5007368;28;20042;-79
2022/08/29 03:48:55;;;;;;;9.75;7.47;;;;;;;32.64;33.35;98186.34;5006019;28;20409;-80
2022/08/29 03:51:21;;;;;;;8.60;7.25;;;;;;;32.78;33.36;98190.44;5001827;28;20026;-79
2022/08/29 03:53:47;;;;;;;9.32;7.85;;;;;;;32.82;32.82;98190.22;5004122;28;20048;-80
2022/08/29 03:56:13;;;;;;;13.52;8.32;;;;;;;32.32;34.23;98195.00;5002501;28;20026;-79
2022/08/29 03:58:39;;;;;;;8.73;7.82;;;;;;;32.09;34.58;98191.72;5004888;28;20445;-79
2022/08/29 04:01:05;;;;;;;8.40;7.32;;;;;;;32.48;33.89;98192.47;5008640;28;20038;-79
2022/08/29 04:03:32;;;;;;;10.75;8.10;;;;;;;32.61;33.47;98207.22;5007680;28;20042;-80
2022/08/29 04:05:58;;;;;;;8.50;7.28;;;;;;;32.78;33.35;98210.34;5005099;28;20030;-80
2022/08/29 04:08:24;;;;;;;8.80;7.03;;;;;;;33.21;32.46;98212.38;5010818;28;20038;-80
2022/08/29 04:10:50;;;;;;;9.80;7.25;;;;;;;32.65;33.17;98222.00;5009602;28;20022;-80
2022/08/29 04:13:17;;;;;;;10.65;7.60;;;;;;;32.68;33.12;98218.19;5016604;28;20042;-80
2022/08/29 04:15:43;;;;;;;11.95;7.45;;;;;;;32.82;33.08;98221.50;5020361;28;20075;-80
2022/08/29 04:18:10;;;;;;;8.93;7.05;;;;;;;32.58;33.55;98225.25;5005055;28;20041;-80
2022/08/29 04:20:38;;;;;;;9.02;6.45;;;;;;;32.46;33.74;98219.81;4999710;28;20057;-80
2022/08/29 04:23:05;;;;;;;11.38;8.57;;;;;;;32.30;33.66;98223.13;4998356;28;20042;-80
2022/08/29 04:25:35;;;;;;;9.77;7.63;;;;;;;32.32;33.74;98223.44;5009210;28;20367;-79
2022/08/29 04:28:03;;;;;;;10.88;6.22;;;;;;;32.45;33.60;98221.09;5004565;28;20038;-79
2022/08/29 04:30:29;;;;;;;8.45;6.65;;;;;;;32.59;33.04;98228.88;5015443;28;20485;-80
2022/08/29 04:32:55;;;;;;;9.25;6.50;;;;;;;32.42;33.35;98239.09;5008242;28;20079;-80
2022/08/29 04:35:22;;;;;;;10.43;6.88;;;;;;;32.52;33.18;98241.41;5011035;28;20037;-79
2022/08/29 04:37:48;;;;;;;9.68;6.13;;;;;;;32.54;33.32;98241.72;5005272;28;20038;-80
2022/08/29 04:40:17;;;;;;;11.75;8.52;;;;;;;32.52;32.79;98238.56;5004184;28;20034;-80
2022/08/29 04:42:45;;;;;;;10.65;7.32;;;;;;;32.23;33.70;98249.09;5004834;28;20494;-80
2022/08/29 04:45:14;;;;;;;10.25;7.13;;;;;;;32.57;32.94;98252.13;5006066;28;20050;-79
2022/08/29 04:47:42;;;;;;;9.70;6.80;;;;;;;32.98;32.65;98252.34;5007901;28;20041;-80
2022/08/29 04:50:11;;;;;;;11.88;7.03;;;;;;;33.10;31.93;98256.94;5004565;28;20113;-80
2022/08/29 04:52:37;;;;;;;10.13;6.15;;;;;;;32.89;32.36;98253.19;5001239;28;20120;-80
2022/08/29 04:55:05;;;;;;;8.15;5.72;;;;;;;32.69;32.45;98253.13;5012117;28;20046;-80
2022/08/29 04:57:33;;;;;;;6.50;5.90;;;;;;;32.60;32.55;98261.72;5011170;28;20034;-80
2022/08/29 04:59:59;;;;;;;7.80;6.93;;;;;;;32.84;32.52;98265.25;5009011;28;20061;-79
2022/08/29 05:02:26;;;;;;;6.38;5.15;;;;;;;33.00;32.35;98266.84;5007209;28;20026;-79
2022/08/29 05:04:53;;;;;;;8.27;6.35;;;;;;;33.11;31.88;98270.72;5014099;28;20041;-78
2022/08/29 05:07:20;;;;;;;12.18;7.93;;;;;;;32.66;32.36;98266.25;5015932;28;20101;-79
2022/08/29 05:10:01;;;;;;;13.35;6.75;;;;;;;32.66;32.56;98271.94;5008272;28;20038;-79
2022/08/29 05:12:28;;;;;;;7.00;6.13;;;;;;;32.88;31.96;98277.25;5006163;28;20049;-78
2022/08/29 05:14:55;;;;;;;10.43;5.65;;;;;;;33.04;31.88;98284.53;5013744;28;20022;-77
2022/08/29 05:17:21;;;;;;;10.25;6.68;;;;;;;32.43;32.78;98281.28;5010988;28;20030;-77
2022/08/29 05:19:48;;;;;;;11.73;6.45;;;;;;;32.04;33.57;98291.06;5012333;28;20448;-78
2022/08/29 05:22:15;;;;;;;9.48;7.50;;;;;;;32.28;33.06;98291.03;5012062;28;20046;-78
2022/08/29 05:24:41;;;;;;;8.30;7.13;;;;;;;32.00;33.34;98299.75;5011349;28;20463;-77
2022/08/29 05:27:09;;;;;;;9.48;6.72;;;;;;;32.41;32.87;98297.25;5012374;28;20049;-77
2022/08/29 05:29:39;;;;;;;9.00;5.95;;;;;;;32.66;32.72;98296.72;5013584;28;20030;-77
2022/08/29 05:32:07;;;;;;;7.13;5.78;;;;;;;32.60;32.60;98296.63;5008488;28;20036;-78
2022/08/29 05:34:37;;;;;;;8.10;5.82;;;;;;;32.63;32.44;98294.84;5009600;28;20091;-78
2022/08/29 05:37:06;;;;;;;10.40;7.20;;;;;;;32.65;32.71;98295.19;5008327;28;20461;-77
2022/08/29 05:39:34;;;;;;;7.57;6.32;;;;;;;31.99;33.70;98312.38;5008726;28;20054;-77
2022/08/29 05:42:00;;;;;;;12.60;7.93;;;;;;;32.30;33.05;98303.47;5032241;28;20076;-77
2022/08/29 05:44:28;;;;;;;10.15;6.70;;;;;;;32.50;32.80;98303.69;5020429;28;20477;-77
2022/08/29 05:46:54;;;;;;;9.90;7.07;;;;;;;32.55;32.63;98308.69;5015859;28;20026;-77
2022/08/29 05:49:21;;;;;;;11.20;7.05;;;;;;;32.95;31.94;98308.16;5020841;28;20066;-77
2022/08/29 05:51:47;;;;;;;9.65;7.65;;;;;;;32.38;33.04;98304.69;5014621;28;20062;-77
2022/08/29 05:54:13;;;;;;;8.77;6.60;;;;;;;32.51;32.78;98310.91;5017038;28;20033;-79
2022/08/29 05:56:39;;;;;;;9.85;7.70;;;;;;;32.23;33.36;98311.59;5014847;28;20026;-78
2022/08/29 05:59:05;;;;;;;8.88;6.47;;;;;;;32.46;32.94;98314.44;5009761;28;20042;-78
2022/08/29 06:01:33;;;;;;;9.57;6.68;;;;;;;32.50;32.56;98317.09;5015472;28;20053;-78
2022/08/29 06:04:00;;;;;;;11.75;7.57;;;;;;;32.28;33.14;98305.25;5015083;28;20029;-78
2022/08/29 06:06:28;;;;;;;8.27;6.85;;;;;;;32.41;32.73;98314.31;5010898;28;20033;-78
2022/08/29 06:08:57;;;;;;;8.32;7.15;;;;;;;32.07;33.29;98324.94;5011439;28;20080;-78
2022/08/29 06:11:27;;;;;;;10.07;7.55;;;;;;;32.19;33.38;98322.34;5025557;28;20092;-78
2022/08/29 06:13:54;;;;;;;10.52;7.75;;;;;;;31.39;34.55;98328.72;5007564;28;20396;-78
2022/08/29 06:16:23;;;;;;;8.40;6.85;;;;;;;31.15;35.03;98325.78;5004537;28;20120;-78
2022/08/29 06:18:49;;;;;;;11.02;7.40;;;;;;;31.40;34.41;98333.13;5014233;28;20036;-78
2022/08/29 06:21:16;;;;;;;10.70;6.05;;;;;;;31.71;34.34;98336.50;5012293;28;20111;-79
2022/08/29 06:23:43;;;;;;;9.07;6.85;;;;;;;31.73;34.04;98342.47;5008760;28;20073;-78
2022/08/29 06:26:11;;;;;;;9.18;6.97;;;;;;;31.97;33.53;98349.00;5010653;28;20497;-78
2022/08/29 06:28:39;;;;;;;7.40;6.65;;;;;;;31.70;33.91;98343.44;5004761;28;20034;-78
2022/08/29 06:31:11;;;;;;;11.27;7.95;;;;;;;31.98;33.16;98344.09;5017343;28;20371;-77
2022/08/29 06:33:38;;;;;;;11.30;7.80;;;;;;;31.68;33.79;98348.81;5009298;28;20113;-77
2022/08/29 06:36:05;;;;;;;11.02;7.55;;;;;;;31.49;34.71;98347.28;5010384;28;20392;-77
2022/08/29 06:38:33;;;;;;;13.38;9.05;;;;;;;31.16;35.01;98341.53;5015200;28;20034;-78
2022/08/29 06:41:17;;;;;;;10.23;7.28;;;;;;;31.86;33.74;98362.13;5009439;28;20053;-77
2022/08/29 06:43:44;;;;;;;10.25;8.07;;;;;;;31.60;34.03;98361.00;5016015;28;20447;-77
2022/08/29 06:46:40;;;;;;;15.45;7.75;;;;;;;31.85;33.39;98361.34;5015404;28;20072;-77
2022/08/29 06:49:09;;;;;;;9.60;6.32;;;;;;;32.15;33.26;98367.22;5012703;28;20044;-77
2022/08/29 06:51:38;;;;;;;8.73;6.82;;;;;;;32.05;33.12;98372.94;5011090;28;20072;-78
2022/08/29 06:54:06;;;;;;;15.57;8.27;;;;;;;31.60;33.67;98375.19;5022161;28;20045;-78
2022/08/29 06:56:34;;;;;;;9.60;8.13;;;;;;;31.95;33.17;98382.75;5012713;28;20018;-78
2022/08/29 06:59:00;;;;;;;9.43;7.63;;;;;;;32.11;32.85;98384.44;5014417;28;20035;-78
2022/08/29 07:01:26;;;;;;;7.63;6.40;;;;;;;32.02;33.11;98378.81;5012629;28;20061;-78
2022/08/29 07:03:53;;;;;;;6.75;6.05;;;;;;;32.34;32.78;98382.88;5011274;28;20034;-79
2022/08/29 07:06:20;;;;;;;9.02;7.07;;;;;;;32.28;33.00;98384.81;5020622;28;20048;-79
2022/08/29 07:08:47;;;;;;;7.22;5.53;;;;;;;32.24;33.24;98384.19;5016693;28;20033;-78
2022/08/29 07:11:13;;;;;;;7.18;5.90;;;;;;;32.53;32.90;98376.63;5014666;28;20030;-79
2022/08/29 07:13:39;;;;;;;8.00;6.38;;;;;;;32.32;32.78;98389.06;5012172;28;20033;-79
2022/08/29 07:16:09;;;;;;;9.93;6.40;;;;;;;32.70;32.68;98380.59;5011405;28;20018;-78
2022/08/29 07:18:36;;;;;;;6.03;5.50;;;;;;;32.62;32.45;98384.28;5017074;28;20036;-78
2022/08/29 07:21:10;;;;;;;6.43;5.78;;;;;;;32.63;32.71;98383.81;5021463;28;20042;-79
2022/08/29 07:23:37;;;;;;;7.00;6.03;;;;;;;32.70;32.04;98380.59;5027560;28;20087;-79
2022/08/29 07:26:37;;;;;;;7.85;5.30;;;;;;;32.16;34.15;98386.59;5018961;28;20041;-79
2022/08/29 07:29:08;;;;;;;7.25;6.53;;;;;;;32.73;33.00;98391.00;4993338;28;20046;-78
2022/08/29 07:31:35;;;;;;;6.72;5.70;;;;;;;33.07;31.45;98392.47;5017214;28;20117;-79
2022/08/29 07:34:01;;;;;;;6.63;5.75;;;;;;;33.14;31.86;98394.91;5007030;28;20037;-78
2022/08/29 07:36:27;;;;;;;5.85;5.25;;;;;;;33.36;31.38;98398.19;5006855;28;20037;-79
2022/08/29 07:38:53;;;;;;;4.78;4.25;;;;;;;34.05;30.79;98400.41;5017788;28;20022;-79
2022/08/29 07:41:19;;;;;;;5.30;4.80;;;;;;;33.42;31.45;98401.16;5010255;28;20034;-79
2022/08/29 07:43:45;;;;;;;5.20;4.70;;;;;;;33.99;30.82;98401.59;5007609;28;20135;-79
2022/08/29 07:46:14;;;;;;;4.75;4.30;;;;;;;34.24;30.22;98398.09;5017564;28;20037;-80
2022/08/29 07:48:41;;;;;;;4.93;4.53;;;;;;;33.83;30.57;98397.22;5011892;28;20022;-79
2022/08/29 07:51:14;;;;;;;8.10;5.65;;;;;;;33.79;31.63;98390.13;5003972;28;20041;-81
2022/08/29 07:53:41;;;;;;;4.45;4.13;;;;;;;33.36;32.48;98398.19;5012675;28;20026;-81
2022/08/29 07:56:12;;;;;;;5.95;5.38;;;;;;;33.26;32.32;98404.44;5013752;28;20109;-81
2022/08/29 07:58:39;;;;;;;5.20;4.80;;;;;;;33.65;31.33;98403.13;5011626;28;20025;-80
2022/08/29 08:01:05;;;;;;;6.82;6.13;;;;;;;32.59;35.39;98402.31;5018243;28;20034;-81
2022/08/29 08:03:33;;;;;;;7.00;5.93;;;;;;;32.82;33.34;98401.50;5012822;28;20551;-80
2022/08/29 08:05:59;;;;;;;8.00;6.38;;;;;;;33.06;32.22;98407.97;5018168;28;20029;-81
2022/08/29 08:08:25;;;;;;;8.15;7.35;;;;;;;32.34;33.14;98408.47;5012764;28;20033;-81
2022/08/29 08:10:51;;;;;;;8.10;7.22;;;;;;;32.29;34.26;98420.50;5013964;28;20026;-81
2022/08/29 08:13:18;;;;;;;9.70;8.70;;;;;;;32.07;34.34;98407.34;5004967;28;20030;-81
2022/08/29 08:15:45;;;;;;;8.93;7.82;;;;;;;32.29;33.67;98417.66;5002082;28;20042;-79
2022/08/29 08:18:11;;;;;;;8.52;7.22;;;;;;;32.88;31.90;98424.38;5008660;28;20041;-79
2022/08/29 08:20:37;;;;;;;10.45;7.75;;;;;;;32.51;32.41;98429.56;5012381;28;20041;-80
2022/08/29 08:23:03;;;;;;;8.48;7.38;;;;;;;32.98;32.18;98426.66;5007004;28;20113;-78
2022/08/29 08:25:30;;;;;;;9.32;7.55;;;;;;;33.27;30.57;98426.75;5009306;28;20046;-80
2022/08/29 08:27:57;;;;;;;7.32;6.47;;;;;;;33.37;31.81;98436.75;5013970;28;20386;-80
2022/08/29 08:30:24;;;;;;;8.80;7.13;;;;;;;33.80;31.31;98429.53;5007528;28;20482;-79
2022/08/29 08:32:50;;;;;;;7.47;6.72;;;;;;;33.67;32.04;98420.50;5019122;28;20045;-80
2022/08/29 08:35:18;;;;;;;8.35;7.57;;;;;;;33.63;33.98;98424.84;5013806;28;20389;-80
2022/08/29 08:37:45;;;;;;;7.95;7.15;;;;;;;33.42;31.59;98421.84;5015786;28;20113;-80
2022/08/29 08:40:19;;;;;;;7.35;6.68;;;;;;;33.87;31.91;98422.63;5011624;28;20030;-80
2022/08/29 08:42:45;;;;;;;8.07;7.20;;;;;;;32.98;31.59;98429.50;5010913;28;20029;-80
2022/08/29 08:45:14;;;;;;;7.13;6.30;;;;;;;33.03;33.65;98423.16;5006593;28;20036;-80
2022/08/29 08:47:52;;;;;;;8.13;7.30;;;;;;;33.64;31.45;98432.09;5008201;28;20038;-81
2022/08/29 08:50:29;;;;;;;8.55;7.35;;;;;;;33.87;30.20;98436.88;5009560;28;20042;-80
2022/08/29 08:53:10;;;;;;;8.55;7.75;;;;;;;34.21;30.17;98432.53;5014124;28;20518;-80
2022/08/29 08:55:40;;;;;;;;;;;;;;;33.87;28.72;98423.41;5009496;28;20069;-80
2022/08/29 08:58:14;;;;;;;7.15;6.45;;;;;;;34.36;29.32;98430.41;5007127;28;20219;-80
2022/08/29 09:00:50;;;;;;;7.00;6.28;;;;;;;34.29;32.52;98431.63;5009703;28;20041;-80
2022/08/29 09:03:43;;;;;;;7.40;6.63;;;;;;;34.27;31.14;98441.94;5006677;28;20125;-79
2022/08/29 09:06:25;;;;;;;6.60;6.10;;;;;;;34.47;31.38;98439.91;5010227;28;20485;-79
2022/08/29 09:09:04;;;;;;;7.38;6.35;;;;;;;35.51;30.94;98436.06;5005222;28;20110;-80
2022/08/29 09:11:44;;;;;;;5.88;5.22;;;;;;;35.89;28.03;98432.00;5007090;28;20097;-80
2022/08/29 09:14:16;;;;;;;5.80;5.35;;;;;;;36.86;26.68;98430.81;5003938;28;20034;-80
2022/08/29 09:16:48;;;;;;;5.55;5.10;;;;;;;36.63;26.63;98427.06;5003723;28;21075;-80
2022/08/29 09:19:15;;;;;;;4.57;4.18;;;;;;;35.70;28.16;98436.50;5001293;28;20398;-80
2022/08/29 09:21:48;;;;;;;5.32;4.47;;;;;;;35.90;27.40;98437.19;5011837;28;20089;-80
2022/08/29 09:24:32;;;;;;;5.25;4.75;;;;;;;34.57;27.98;98437.75;5008355;28;20039;-80
2022/08/29 09:26:58;;;;;;;4.75;4.28;;;;;;;33.92;28.81;98439.03;5008931;28;20041;-81
2022/08/29 09:29:29;;;;;;;6.18;4.20;;;;;;;34.43;29.31;98438.53;5005385;28;20497;-80
2022/08/29 09:32:09;;;;;;;5.57;5.10;;;;;;;33.52;33.64;98433.91;5001944;28;20089;-81
2022/08/29 09:34:41;;;;;;;6.20;5.60;;;;;;;33.99;31.02;98435.78;5003591;28;20034;-81
2022/08/29 09:37:30;;;;;;;5.70;4.82;;;;;;;34.37;29.72;98437.69;5011962;28;20300;-81
2022/08/29 09:40:10;;;;;;;5.30;4.88;;;;;;;35.01;30.29;98438.31;5008325;28;20033;-80
2022/08/29 09:43:01;;;;;;;5.85;5.20;;;;;;;35.02;30.51;98437.06;5016910;28;20053;-81
2022/08/29 09:45:27;;;;;;;9.05;5.30;;;;;;;34.55;27.83;98440.31;5011806;28;20034;-82
2022/08/29 09:48:19;;;;;;;5.55;5.15;;;;;;;34.40;30.07;98434.63;5023680;28;20041;-83
2022/08/29 09:50:46;;;;;;;4.82;4.40;;;;;;;34.92;28.36;98437.66;5016070;28;20503;-82
2022/08/29 09:53:21;;;;;;;4.38;4.07;;;;;;;35.41;27.26;98431.78;5012250;28;20038;-82
2022/08/29 09:55:47;;;;;;;4.97;4.55;;;;;;;35.65;29.38;98435.16;5006318;28;20039;-82
2022/08/29 09:58:19;;;;;;;5.07;4.68;;;;;;;36.08;29.00;98431.13;5016643;28;20030;-82
2022/08/29 10:01:10;;;;;;;7.57;4.60;;;;;;;36.90;28.49;98440.72;5013585;28;20056;-82
2022/08/29 10:03:42;;;;;;;4.63;4.22;;;;;;;36.14;27.90;98436.09;5002079;28;20046;-81
2022/08/29 10:06:19;;;;;;;4.25;3.90;;;;;;;36.46;28.45;98438.44;5009164;28;20122;-81
2022/08/29 10:08:57;;;;;;;4.10;3.80;;;;;;;36.30;27.08;98439.06;5013972;28;20037;-81
2022/08/29 10:11:38;;;;;;;4.47;4.07;;;;;;;35.58;29.09;98431.97;5005833;28;20046;-80
2022/08/29 10:14:10;;;;;;;4.43;4.03;;;;;;;35.55;30.88;98438.69;5004473;28;20121;-80
2022/08/29 10:18:19;;;;;;;3.90;3.60;;;;;;;35.87;25.95;98435.34;5013373;28;20026;-81
2022/08/29 10:19:44;;;;;;;5.15;4.70;;;;;;;34.75;29.39;98435.38;5006610;28;20490;-81
2022/08/29 10:22:28;;;;;;;5.97;5.25;;;;;;;35.21;31.28;98428.97;4998551;28;20046;-81
2022/08/29 10:25:22;;;;;;;4.90;4.50;;;;;;;35.56;27.32;98431.69;5008960;28;20026;-82
2022/08/29 10:28:30;;;;;;;5.00;4.60;;;;;;;35.64;26.50;98427.88;5008853;28;20062;-82
2022/08/29 10:30:59;;;;;;;4.43;4.10;;;;;;;35.53;28.04;98430.63;4987628;28;20134;-81
2022/08/29 10:33:54;;;;;;;4.40;4.00;;;;;;;35.20;27.54;98427.38;5012418;28;20045;-82
2022/08/29 10:36:35;;;;;;;4.05;3.67;;;;;;;35.49;27.99;98423.53;5003544;28;20499;-82
2022/08/29 10:39:44;;;;;;;4.97;4.57;;;;;;;36.61;26.80;98418.22;5008221;28;20120;-81
2022/08/29 10:42:15;;;;;;;4.13;3.78;;;;;;;37.25;25.13;98426.06;5006490;28;20037;-81
2022/08/29 10:45:08;;;;;;;4.47;3.72;;;;;;;37.22;24.72;98425.00;5002844;28;20025;-81
2022/08/29 10:47:58;;;;;;;3.72;3.42;;;;;;;37.58;24.43;98429.00;5002903;28;20486;-82
2022/08/29 10:51:13;;;;;;;3.47;3.28;;;;;;;37.36;25.42;98418.28;5010505;28;20034;-81
2022/08/29 10:53:44;;;;;;;3.60;3.28;;;;;;;35.78;28.81;98431.91;4999861;28;20046;-80
2022/08/29 10:56:42;;;;;;;4.72;3.42;;;;;;;35.21;26.81;98424.06;5008448;28;20092;-81
2022/08/29 10:59:21;;;;;;;4.07;3.50;;;;;;;35.24;28.75;98428.72;5004544;28;20041;-81
2022/08/29 11:01:59;;;;;;;3.97;3.67;;;;;;;35.84;27.20;98427.81;5005380;28;20037;-81
2022/08/29 11:04:46;;;;;;;3.97;3.67;;;;;;;37.23;26.74;98428.63;5003543;28;20121;-82
2022/08/29 11:07:28;;;;;;;2.95;2.75;;;;;;;37.87;25.17;98422.00;5006278;28;20038;-82
2022/08/29 11:10:03;;;;;;;4.25;3.38;;;;;;;38.23;24.82;98420.91;5004832;28;20025;-82
2022/08/29 11:12:29;;;;;;;2.50;2.40;;;;;;;37.36;27.19;98415.41;5003612;28;20417;-81
2022/08/29 11:15:15;;;;;;;2.88;2.67;;;;;;;36.78;25.44;98416.22;5004312;28;20030;-81
2022/08/29 11:17:45;;;;;;;6.35;3.33;;;;;;;36.89;26.72;98407.69;5010204;28;20037;-81
2022/08/29 11:20:18;;;;;;;3.63;3.28;;;;;;;37.02;25.98;98408.00;5004992;28;20030;-82
2022/08/29 11:23:03;;;;;;;2.97;2.75;;;;;;;36.36;25.01;98402.69;5004812;28;20175;-82
2022/08/29 11:25:31;;;;;;;3.40;3.10;;;;;;;35.77;25.45;98408.25;5008458;28;20117;-81
2022/08/29 11:28:09;;;;;;;5.60;3.63;;;;;;;35.41;26.96;98397.50;5007207;28;20041;-80
2022/08/29 11:30:43;;;;;;;4.43;4.07;;;;;;;35.13;27.56;98411.50;5005779;28;20121;-79
2022/08/29 11:33:45;;;;;;;5.05;4.30;;;;;;;35.53;25.46;98406.97;4995934;28;20156;-79
2022/08/29 11:37:01;;;;;;;4.30;4.00;;;;;;;36.48;25.95;98409.31;4999520;28;20111;-80
2022/08/29 11:39:47;;;;;;;4.32;4.03;;;;;;;37.58;24.87;98402.41;5004517;28;20096;-79
2022/08/29 11:42:16;;;;;;;3.50;3.20;;;;;;;37.32;24.73;98406.25;5009179;28;20052;-79
2022/08/29 11:44:52;;;;;;;3.72;3.42;;;;;;;37.20;24.77;98412.50;5026117;28;20080;-79
2022/08/29 11:47:31;;;;;;;3.38;3.10;;;;;;;36.59;27.93;98409.38;5006784;28;20037;-79
2022/08/29 11:50:22;;;;;;;3.90;3.30;;;;;;;37.05;26.11;98406.97;5012127;28;20569;-80